TimePDT,TemperatureF,Dew PointF,Humidity,Sea Level PressureIn,VisibilityMPH,Wind Direction,Wind SpeedMPH,Gust SpeedMPH,PrecipitationIn,Events,Conditions,WindDirDegrees,DateUTC
12:53 AM,44.1,23.0,43,29.91,-9999.0,Calm,Calm,-,N/A,,Unknown,0,2013-05-27 07:53:00
1:53 AM,39.0,21.9,50,29.93,-9999.0,WSW,4.6,-,N/A,,Unknown,240,2013-05-27 08:53:00
2:53 AM,35.1,21.0,57,29.94,-9999.0,ESE,5.8,-,N/A,,Unknown,120,2013-05-27 09:53:00
3:53 AM,39.0,24.1,55,29.93,-9999.0,ESE,6.9,-,N/A,,Unknown,110,2013-05-27 10:53:00
4:53 AM,37.0,24.1,59,29.94,-9999.0,SSW,4.6,-,N/A,,Unknown,210,2013-05-27 11:53:00
5:53 AM,35.1,21.0,57,29.95,-9999.0,South,3.5,-,N/A,,Unknown,180,2013-05-27 12:53:00
6:53 AM,44.1,27.0,51,29.94,-9999.0,Calm,Calm,-,N/A,,Unknown,0,2013-05-27 13:53:00
7:53 AM,53.1,28.9,40,29.91,-9999.0,Calm,Calm,-,N/A,,Unknown,0,2013-05-27 14:53:00
8:53 AM,55.0,27.0,34,29.92,-9999.0,ESE,5.8,-,N/A,,Unknown,110,2013-05-27 15:53:00
9:53 AM,55.9,27.0,33,29.91,-9999.0,Calm,Calm,-,N/A,,Unknown,0,2013-05-27 16:53:00
10:53 AM,63.0,24.1,23,29.87,-9999.0,South,4.6,-,N/A,,Unknown,170,2013-05-27 17:53:00
11:53 AM,66.9,23.0,19,29.84,-9999.0,North,5.8,-,N/A,,Unknown,360,2013-05-27 18:53:00
12:53 PM,66.0,15.1,14,29.83,-9999.0,West,9.2,-,N/A,,Unknown,280,2013-05-27 19:53:00
1:53 PM,66.9,16.0,14,29.82,-9999.0,Variable,3.5,-,N/A,,Unknown,0,2013-05-27 20:53:00
2:53 PM,70.0,12.0,11,29.79,-9999.0,West,16.1,-,N/A,,Unknown,280,2013-05-27 21:53:00
3:53 PM,68.0,16.0,14,29.78,-9999.0,West,15.0,26.5,N/A,,Unknown,280,2013-05-27 22:53:00
4:38 PM,64.9,23.0,20,29.96,-9999.0,SW,23.0,41.4,N/A,,Unknown,230,2013-05-27 23:38:00
4:53 PM,66.0,18.0,16,29.82,-9999.0,WNW,15.0,19.6,N/A,,Unknown,290,2013-05-27 23:53:00
5:53 PM,59.0,30.9,35,29.87,-9999.0,West,23.0,28.8,N/A,,Unknown,280,2013-05-28 00:53:00
6:53 PM,57.0,32.0,39,29.86,-9999.0,West,17.3,24.2,N/A,,Unknown,270,2013-05-28 01:53:00
7:53 PM,48.9,39.9,71,29.89,-9999.0,SSW,16.1,-,N/A,,Unknown,200,2013-05-28 02:53:00
8:53 PM,48.9,41.0,74,29.85,-9999.0,South,5.8,-,N/A,,Unknown,170,2013-05-28 03:53:00
9:53 PM,46.9,39.9,77,29.84,-9999.0,SSW,5.8,-,N/A,,Unknown,200,2013-05-28 04:53:00
10:53 PM,48.0,37.0,66,29.79,-9999.0,WSW,6.9,-,N/A,,Unknown,250,2013-05-28 05:53:00
11:53 PM,44.1,36.0,73,29.78,-9999.0,SSW,8.1,-,N/A,,Unknown,200,2013-05-28 06:53:00